createdAt,value
2017-08-13T07:58:31.397Z,1000.0
2017-08-13T07:59:32.810Z,1000.0
2017-08-13T08:00:34.240Z,1000.1
2017-08-13T08:01:35.662Z,1000.0
2017-08-13T08:02:37.120Z,1000.0
2017-08-13T08:03:38.549Z,1000.1
2017-08-13T08:04:39.991Z,1000.1
2017-08-13T08:05:41.501Z,1000.1
2017-08-13T08:06:43.020Z,1000.1
2017-08-13T08:07:44.845Z,1000.1
2017-08-13T08:08:46.437Z,1000.1
2017-08-13T08:09:48.068Z,1000.1
2017-08-13T08:10:50.033Z,1000.1
2017-08-13T08:11:51.873Z,1000.1
2017-08-13T08:12:53.981Z,1000.0
2017-08-13T08:13:55.901Z,1000.1
2017-08-13T08:14:57.843Z,1000.0
2017-08-13T08:15:59.862Z,1000.0
2017-08-13T08:17:01.643Z,1000.0
2017-08-13T08:18:03.388Z,1000.1
2017-08-13T08:19:05.166Z,1000.1
2017-08-13T08:20:06.908Z,1000.1
2017-08-13T08:21:08.464Z,1000.1
2017-08-13T08:22:10.005Z,1000.2
2017-08-13T08:23:11.572Z,1000.2
2017-08-13T08:24:13.138Z,1000.2
2017-08-13T08:25:14.679Z,1000.2
2017-08-13T08:26:16.414Z,1000.3
2017-08-13T08:27:17.957Z,1000.3
2017-08-13T08:28:19.489Z,1000.3
2017-08-13T08:29:21.178Z,1000.3
2017-08-13T08:30:22.911Z,1000.3
2017-08-13T08:31:24.725Z,1000.3
2017-08-13T08:32:26.557Z,1000.3
2017-08-13T08:33:28.172Z,1000.3
2017-08-13T08:34:29.972Z,1000.3
2017-08-13T08:35:31.478Z,1000.3
2017-08-13T08:36:33.201Z,1000.3
2017-08-13T08:37:34.811Z,1000.3
2017-08-13T08:38:36.434Z,1000.3
2017-08-13T08:39:38.045Z,1000.3
2017-08-13T08:40:39.661Z,1000.3
2017-08-13T08:41:41.241Z,1000.4
2017-08-13T08:42:42.796Z,1000.4
2017-08-13T08:43:44.908Z,1000.4
2017-08-13T08:44:46.900Z,1000.4
2017-08-13T08:45:48.870Z,1000.4
2017-08-13T08:46:50.679Z,1000.4
2017-08-13T08:47:52.468Z,1000.4
2017-08-13T08:48:54.175Z,1000.3
2017-08-13T08:49:55.801Z,1000.3
2017-08-13T08:50:57.362Z,1000.3
2017-08-13T08:51:58.900Z,1000.3
2017-08-13T08:53:00.456Z,1000.3
2017-08-13T08:54:02.072Z,1000.3
2017-08-13T08:55:04.370Z,1000.4
2017-08-13T08:56:06.081Z,1000.4
2017-08-13T08:57:07.867Z,1000.4
2017-08-13T08:58:09.459Z,1000.4
2017-08-13T08:59:11.340Z,1000.4
2017-08-13T09:00:13.308Z,1000.4
2017-08-13T09:01:15.185Z,1000.5
2017-08-13T09:02:16.840Z,1000.4
2017-08-13T09:03:18.715Z,1000.5
2017-08-13T09:04:20.583Z,1000.5
2017-08-13T09:05:22.186Z,1000.5
2017-08-13T09:06:23.739Z,1000.5
2017-08-13T09:07:25.306Z,1000.6
2017-08-13T09:08:26.835Z,1000.6
2017-08-13T09:09:28.943Z,1000.6
2017-08-13T09:10:30.376Z,1000.6
2017-08-13T09:11:32.007Z,1000.6
2017-08-13T09:12:33.552Z,1000.7
2017-08-13T09:13:35.101Z,1000.7
2017-08-13T09:14:36.671Z,1000.7
2017-08-13T09:15:38.475Z,1000.7
2017-08-13T09:16:40.044Z,1000.7
2017-08-13T09:17:41.578Z,1000.7
2017-08-13T09:18:43.102Z,1000.7
2017-08-13T09:19:44.621Z,1000.7
2017-08-13T09:20:46.171Z,1000.7
2017-08-13T09:21:47.710Z,1000.7
2017-08-13T09:22:49.206Z,1000.7
2017-08-13T09:23:50.848Z,1000.7
2017-08-13T09:24:52.405Z,1000.8
2017-08-13T09:25:54.040Z,1000.8
2017-08-13T09:26:55.607Z,1000.8
2017-08-13T09:27:57.144Z,1000.8
2017-08-13T09:28:58.663Z,1000.8
2017-08-13T09:30:00.211Z,1000.8
2017-08-13T09:31:01.766Z,1000.8
2017-08-13T09:32:03.293Z,1000.8
2017-08-13T09:33:04.860Z,1000.8
2017-08-13T09:34:06.422Z,1000.8
2017-08-13T09:35:07.968Z,1000.8
2017-08-13T09:36:09.575Z,1000.9
2017-08-13T09:37:11.126Z,1000.9
2017-08-13T09:38:12.615Z,1000.9
2017-08-13T09:39:14.141Z,1000.9
2017-08-13T09:40:15.670Z,1000.9
2017-08-13T09:41:17.267Z,1000.9
2017-08-13T09:42:18.783Z,1000.9
2017-08-13T09:43:20.378Z,1001.0
2017-08-13T09:44:21.966Z,1001.0
2017-08-13T09:45:23.529Z,1001.0
2017-08-13T09:46:25.084Z,1001.0
2017-08-13T09:47:26.614Z,1001.0
2017-08-13T09:48:28.153Z,1001.1
2017-08-13T09:49:29.685Z,1001.0
2017-08-13T09:50:31.292Z,1001.0
2017-08-13T09:51:32.872Z,1001.1
2017-08-13T09:52:34.480Z,1001.1
2017-08-13T09:53:36.022Z,1001.2
2017-08-13T09:54:37.560Z,1001.2
2017-08-13T09:55:39.063Z,1001.2
2017-08-13T09:56:40.608Z,1001.2
2017-08-13T09:57:42.179Z,1001.2
2017-08-13T09:58:43.769Z,1001.2
2017-08-13T09:59:45.366Z,1001.1
2017-08-13T10:00:46.970Z,1001.2
2017-08-13T10:01:48.477Z,1001.2
2017-08-13T10:02:50.116Z,1001.2
2017-08-13T10:03:51.608Z,1001.2
2017-08-13T10:04:53.144Z,1001.2
2017-08-13T10:05:54.774Z,1001.1
2017-08-13T10:06:56.278Z,1001.2
2017-08-13T10:07:57.840Z,1001.2
2017-08-13T10:08:59.410Z,1001.2
2017-08-13T10:10:00.969Z,1001.3
2017-08-13T10:11:02.540Z,1001.3
2017-08-13T10:12:04.020Z,1001.4
2017-08-13T10:13:05.525Z,1001.3
2017-08-13T10:14:07.108Z,1001.3
2017-08-13T10:15:08.668Z,1001.3
2017-08-13T10:16:10.203Z,1001.3
2017-08-13T10:17:11.754Z,1001.2
2017-08-13T10:18:13.294Z,1001.3
2017-08-13T10:19:14.890Z,1001.4
2017-08-13T10:20:16.371Z,1001.5
2017-08-13T10:21:18.075Z,1001.4
2017-08-13T10:22:19.691Z,1001.3
2017-08-13T10:23:21.266Z,1001.4
2017-08-13T10:24:23.144Z,1001.7
2017-08-13T10:25:24.669Z,1001.8
2017-08-13T10:26:26.387Z,1001.6
2017-08-13T10:27:28.045Z,1001.4
2017-08-13T10:28:29.901Z,1001.4
2017-08-13T10:29:31.473Z,1001.4
2017-08-13T10:30:33.081Z,1001.3
2017-08-13T10:31:34.577Z,1001.3
2017-08-13T10:32:36.128Z,1001.4
2017-08-13T10:33:37.691Z,1001.4
2017-08-13T10:34:39.214Z,1001.5
2017-08-13T10:35:40.795Z,1001.6
2017-08-13T10:36:42.400Z,1001.6
2017-08-13T10:37:43.916Z,1001.6
2017-08-13T10:38:45.527Z,1001.6
2017-08-13T10:39:47.150Z,1001.6
2017-08-13T10:40:48.932Z,1001.6
2017-08-13T10:41:50.499Z,1001.6
2017-08-13T10:42:52.260Z,1001.6
2017-08-13T10:43:53.823Z,1001.6
2017-08-13T10:44:55.441Z,1001.7
2017-08-13T10:45:57.001Z,1001.6
2017-08-13T10:46:58.565Z,1001.5
2017-08-13T10:48:00.252Z,1001.5
2017-08-13T10:49:01.839Z,1001.5
2017-08-13T10:50:03.434Z,1001.6
2017-08-13T10:51:05.011Z,1001.7
2017-08-13T10:52:07.131Z,1001.6
2017-08-13T10:53:08.738Z,1001.5
2017-08-13T10:54:10.577Z,1001.6
2017-08-13T10:55:12.159Z,1001.9
2017-08-13T10:56:13.711Z,1001.7
2017-08-13T10:57:15.591Z,1001.7
2017-08-13T10:58:17.206Z,1001.9
2017-08-13T10:59:18.745Z,1001.6
2017-08-13T11:00:20.325Z,1001.6
2017-08-13T11:01:21.878Z,1001.5
2017-08-13T11:02:23.424Z,1001.7
2017-08-13T11:03:25.050Z,1001.7
2017-08-13T11:04:26.611Z,1001.8
2017-08-13T11:05:28.225Z,1001.8
2017-08-13T11:06:29.847Z,1002.0
2017-08-13T11:07:31.372Z,1001.8
2017-08-13T11:08:32.919Z,1001.8
2017-08-13T11:09:34.999Z,1001.7
2017-08-13T11:10:36.611Z,1001.7
2017-08-13T11:11:38.848Z,1001.8
2017-08-13T11:12:40.544Z,1001.8
2017-08-13T11:13:42.150Z,1001.8
2017-08-13T11:14:43.668Z,1001.8
2017-08-13T11:15:45.230Z,1001.8
2017-08-13T11:16:46.930Z,1002.0
2017-08-13T11:17:48.532Z,1002.0
2017-08-13T11:18:50.122Z,1002.1
2017-08-13T11:19:51.683Z,1001.9
2017-08-13T11:20:53.199Z,1001.9
2017-08-13T11:21:54.904Z,1002.0
2017-08-13T11:22:56.638Z,1002.2
2017-08-13T11:23:58.219Z,1002.2
2017-08-13T11:24:59.969Z,1002.2
2017-08-13T11:26:01.564Z,1002.1
2017-08-13T11:27:03.345Z,1002.0
2017-08-13T11:28:04.967Z,1002.1
2017-08-13T11:29:06.521Z,1002.0
2017-08-13T11:30:08.188Z,1002.1
2017-08-13T11:31:09.778Z,1002.1
2017-08-13T11:32:11.524Z,1002.0
2017-08-13T11:33:13.179Z,1002.1
2017-08-13T11:34:14.883Z,1002.0
2017-08-13T11:35:16.487Z,1001.9
2017-08-13T11:36:18.166Z,1001.8
2017-08-13T11:37:19.811Z,1001.8
2017-08-13T11:38:21.473Z,1001.9
2017-08-13T11:39:23.059Z,1002.0
2017-08-13T11:40:24.771Z,1002.3
2017-08-13T11:41:26.378Z,1002.3
2017-08-13T11:42:27.854Z,1002.1
2017-08-13T11:43:29.435Z,1002.8
2017-08-13T11:44:31.000Z,1003.2
2017-08-13T11:45:32.858Z,1002.9
2017-08-13T11:46:34.493Z,1002.5
2017-08-13T11:47:36.050Z,1002.3
2017-08-13T11:48:37.798Z,1002.1
2017-08-13T11:49:39.333Z,1002.0
2017-08-13T11:50:41.099Z,1001.9
2017-08-13T11:52:22.005Z,1002.6
2017-08-13T11:53:23.442Z,1002.2
2017-08-13T11:54:25.134Z,1002.2
2017-08-13T11:55:26.556Z,1002.2
2017-08-13T11:56:28.004Z,1002.3
2017-08-13T11:57:29.429Z,1002.0
2017-08-13T11:58:30.867Z,1002.0
2017-08-13T11:59:32.359Z,1002.1
2017-08-13T12:00:33.854Z,1001.9
2017-08-13T12:01:35.438Z,1002.0
2017-08-13T12:02:36.994Z,1002.1
2017-08-13T12:03:38.589Z,1002.0
2017-08-13T12:04:40.148Z,1002.3
2017-08-13T12:05:41.826Z,1002.1
2017-08-13T12:06:43.378Z,1003.3
2017-08-13T12:07:44.985Z,1003.2
2017-08-13T12:08:46.626Z,1003.2
2017-08-13T12:09:48.381Z,1002.3
2017-08-13T12:10:50.017Z,1003.4
2017-08-13T12:11:51.726Z,1003.4
2017-08-13T12:12:53.269Z,1002.6
2017-08-13T12:13:54.904Z,1002.4
2017-08-13T12:14:56.502Z,1001.9
2017-08-13T12:15:58.037Z,1001.9
2017-08-13T12:16:59.795Z,1003.3
2017-08-13T12:18:01.334Z,1002.0
2017-08-13T12:19:03.025Z,1002.2
2017-08-13T12:20:04.779Z,1002.8
2017-08-13T12:21:06.404Z,1002.4
2017-08-13T12:22:08.000Z,1003.2
2017-08-13T12:23:09.679Z,1003.3
2017-08-13T12:24:11.531Z,1002.5
2017-08-13T12:25:13.189Z,1003.0
2017-08-13T12:26:14.912Z,1003.1
2017-08-13T12:27:16.434Z,1003.0
2017-08-13T12:28:18.025Z,1003.0
2017-08-13T12:29:19.599Z,1003.0
2017-08-13T12:30:21.274Z,1002.9
2017-08-13T12:31:22.954Z,1003.0
2017-08-13T12:32:24.535Z,1002.5
2017-08-13T12:33:26.165Z,1002.0
2017-08-13T12:34:27.684Z,1002.1
2017-08-13T12:35:29.420Z,1002.4
2017-08-13T12:36:30.937Z,1002.6
2017-08-13T12:37:32.665Z,1003.0
2017-08-13T12:38:34.298Z,1003.0
2017-08-13T12:39:35.983Z,1002.9
2017-08-13T12:40:37.534Z,1003.0
2017-08-13T12:41:39.061Z,1002.8
2017-08-13T12:42:40.740Z,1001.9
2017-08-13T12:43:42.470Z,1002.6
2017-08-13T12:44:43.999Z,1003.0
2017-08-13T12:45:45.684Z,1002.9
2017-08-13T12:46:47.492Z,1002.8
2017-08-13T12:47:49.073Z,1002.9
2017-08-13T12:48:50.664Z,1002.8
2017-08-13T12:49:52.233Z,1002.4
2017-08-13T12:50:53.739Z,1002.8
2017-08-13T12:51:55.298Z,1002.8
2017-08-13T12:52:56.943Z,1002.0
2017-08-13T12:53:58.611Z,1002.7
2017-08-13T12:55:00.170Z,1002.3
2017-08-13T12:56:01.967Z,1002.9
2017-08-13T12:57:03.529Z,1002.8
2017-08-13T12:58:05.140Z,1002.8
2017-08-13T12:59:06.706Z,1002.8
2017-08-13T13:00:08.437Z,1002.8
2017-08-13T13:01:10.053Z,1002.9
2017-08-13T13:02:11.825Z,1002.8
2017-08-13T13:03:13.660Z,1002.7
2017-08-13T13:04:15.290Z,1002.7
2017-08-13T13:05:16.909Z,1002.7
2017-08-13T13:06:18.531Z,1002.6
2017-08-13T13:07:20.558Z,1002.6
2017-08-13T13:08:22.180Z,1002.6
2017-08-13T13:09:23.759Z,1002.5
2017-08-13T13:10:25.283Z,1002.5
2017-08-13T13:11:26.820Z,1002.5
2017-08-13T13:12:28.375Z,1002.5
2017-08-13T13:13:30.045Z,1002.5
2017-08-13T13:14:31.584Z,1002.5
2017-08-13T13:15:33.130Z,1002.6
2017-08-13T13:16:34.697Z,1002.6
2017-08-13T13:17:36.191Z,1002.5
2017-08-13T13:18:37.676Z,1002.5
2017-08-13T13:19:39.320Z,1002.5
2017-08-13T13:20:40.989Z,1002.5
2017-08-13T13:21:42.583Z,1002.5
2017-08-13T13:22:44.117Z,1002.5
2017-08-13T13:23:45.718Z,1002.5
2017-08-13T13:24:47.352Z,1002.5
2017-08-13T13:25:49.188Z,1002.5
2017-08-13T13:26:50.875Z,1002.5
2017-08-13T13:27:52.611Z,1002.4
2017-08-13T13:28:54.203Z,1002.0
2017-08-13T13:29:55.810Z,1002.4
2017-08-13T13:30:57.434Z,1002.3
2017-08-13T13:31:59.059Z,1002.3
2017-08-13T13:33:00.678Z,1002.2
2017-08-13T13:34:02.307Z,1002.3
2017-08-13T13:35:03.888Z,1002.2
2017-08-13T13:36:05.613Z,1002.2
2017-08-13T13:37:07.175Z,1002.2
2017-08-13T13:38:09.045Z,1002.2
2017-08-13T13:39:10.791Z,1002.2
2017-08-13T13:40:12.402Z,1002.2
2017-08-13T13:41:13.994Z,1002.1
2017-08-13T13:42:15.548Z,1002.1
2017-08-13T13:43:17.142Z,1002.2
2017-08-13T13:44:18.999Z,1002.5
2017-08-13T13:45:20.547Z,1002.6
2017-08-13T13:46:22.534Z,1002.6
2017-08-13T13:47:24.109Z,1002.2
2017-08-13T13:48:25.628Z,1002.5
2017-08-13T13:49:27.196Z,1002.5
2017-08-13T13:50:28.763Z,1002.5
2017-08-13T13:51:30.331Z,1002.5
2017-08-13T13:52:31.912Z,1002.5
2017-08-13T13:53:33.509Z,1002.5
2017-08-13T13:54:35.084Z,1002.5
2017-08-13T13:55:36.645Z,1002.5
2017-08-13T13:56:38.227Z,1002.4
2017-08-13T13:57:39.792Z,1002.4
2017-08-13T13:58:41.356Z,1002.4
2017-08-13T13:59:42.941Z,1002.4
2017-08-13T14:00:44.526Z,1002.4
2017-08-13T14:01:46.161Z,1002.4
2017-08-13T14:02:47.789Z,1002.4
2017-08-13T14:03:49.317Z,1002.4
2017-08-13T14:04:50.820Z,1002.4
2017-08-13T14:05:52.435Z,1002.4
2017-08-13T14:06:54.002Z,1002.5
2017-08-13T14:07:55.597Z,1002.5
2017-08-13T14:08:57.154Z,1002.4
2017-08-13T14:09:58.767Z,1002.3
2017-08-13T14:11:00.313Z,1002.3
2017-08-13T14:12:01.872Z,1002.2
2017-08-13T14:13:03.494Z,1001.8
2017-08-13T14:14:05.043Z,1002.3
2017-08-13T14:15:06.625Z,1002.4
2017-08-13T14:16:08.198Z,1002.0
2017-08-13T14:17:09.733Z,1001.8
2017-08-13T14:18:11.321Z,1002.4
2017-08-13T14:19:12.859Z,1002.3
2017-08-13T14:20:14.498Z,1002.4
2017-08-13T14:21:16.046Z,1001.7
2017-08-13T14:22:17.691Z,1001.7
2017-08-13T14:23:19.299Z,1001.7
2017-08-13T14:24:20.950Z,1002.3
2017-08-13T14:25:22.468Z,1002.1
2017-08-13T14:26:24.051Z,1002.4
2017-08-13T14:27:25.602Z,1002.4
2017-08-13T14:28:27.325Z,1002.4
2017-08-13T14:29:28.904Z,1002.4
2017-08-13T14:30:30.463Z,1002.4
2017-08-13T14:31:31.998Z,1002.5
2017-08-13T14:32:33.569Z,1002.4
2017-08-13T14:33:35.188Z,1002.4
2017-08-13T14:34:36.748Z,1001.7
2017-08-13T14:35:38.265Z,1001.7
2017-08-13T14:36:39.869Z,1001.7
2017-08-13T14:37:41.505Z,1001.6
2017-08-13T14:38:43.098Z,1001.7
2017-08-13T14:39:44.703Z,1002.2
2017-08-13T14:40:46.280Z,1002.4
2017-08-13T14:41:47.828Z,1002.4
2017-08-13T14:42:49.438Z,1002.4
2017-08-13T14:43:51.045Z,1002.4
2017-08-13T14:44:53.259Z,1002.3
2017-08-13T14:45:54.824Z,1001.8
2017-08-13T14:46:56.394Z,1001.7
2017-08-13T14:47:58.023Z,1001.7
2017-08-13T14:48:59.794Z,1001.7
2017-08-13T14:50:01.378Z,1001.8
2017-08-13T14:51:02.933Z,1002.3
2017-08-13T14:52:04.515Z,1001.8
2017-08-13T14:53:06.147Z,1002.4
2017-08-13T14:54:07.631Z,1001.8
2017-08-13T14:55:09.243Z,1001.9
2017-08-13T14:56:10.879Z,1002.2
2017-08-13T14:57:12.448Z,1002.3
2017-08-13T14:58:14.015Z,1002.3
2017-08-13T14:59:15.651Z,1002.1
2017-08-13T15:00:17.362Z,1002.1
2017-08-13T15:01:18.934Z,1001.8
2017-08-13T15:02:20.559Z,1001.8
2017-08-13T15:03:22.261Z,1002.0
2017-08-13T15:04:23.843Z,1002.2
2017-08-13T15:05:25.497Z,1002.2
2017-08-13T15:06:28.193Z,1002.2
2017-08-13T15:07:29.715Z,1002.2
2017-08-13T15:08:31.352Z,1002.3
2017-08-13T15:09:33.103Z,1002.2
2017-08-13T15:10:34.802Z,1002.2
2017-08-13T15:11:36.654Z,1002.2
2017-08-13T15:12:38.220Z,1002.2
2017-08-13T15:13:40.382Z,1002.2
2017-08-13T15:14:42.035Z,1002.2
2017-08-13T15:15:43.979Z,1002.2
2017-08-13T15:16:45.811Z,1002.2
2017-08-13T15:17:47.410Z,1001.9
2017-08-13T15:18:49.097Z,1001.7
2017-08-13T15:19:50.734Z,1002.1
2017-08-13T15:20:52.281Z,1002.1
2017-08-13T15:21:53.828Z,1002.2
2017-08-13T15:22:55.419Z,1002.2
2017-08-13T15:23:56.922Z,1002.2
2017-08-13T15:24:58.644Z,1001.8
2017-08-13T15:26:00.232Z,1002.0
2017-08-13T15:27:01.821Z,1002.0
2017-08-13T15:28:03.416Z,1002.1
2017-08-13T15:29:04.984Z,1002.2
2017-08-13T15:30:06.544Z,1002.2
2017-08-13T15:31:08.119Z,1002.1
2017-08-13T15:32:09.686Z,1002.1
2017-08-13T15:33:11.249Z,1002.1
2017-08-13T15:34:12.824Z,1001.7
2017-08-13T15:35:14.388Z,1002.0
2017-08-13T15:36:15.993Z,1002.2
2017-08-13T15:37:17.667Z,1002.1
2017-08-13T15:38:19.275Z,1002.1
2017-08-13T15:39:20.780Z,1002.1
2017-08-13T15:40:22.505Z,1002.1
2017-08-13T15:41:24.065Z,1002.2
2017-08-13T15:42:25.687Z,1002.2
2017-08-13T15:43:27.329Z,1002.2
2017-08-13T15:44:28.773Z,1002.2
2017-08-13T15:45:30.357Z,1002.1
2017-08-13T15:46:31.816Z,1002.1
2017-08-13T15:47:33.288Z,1002.2
2017-08-13T15:48:34.852Z,1002.2
2017-08-13T15:49:36.476Z,1002.2
2017-08-13T15:50:38.029Z,1002.2
2017-08-13T15:51:39.686Z,1002.2
2017-08-13T15:52:41.195Z,1002.2
2017-08-13T15:53:42.998Z,1001.9
2017-08-13T15:54:44.772Z,1002.0
2017-08-13T15:55:46.573Z,1002.1
2017-08-13T15:56:48.707Z,1002.1
2017-08-13T15:57:50.215Z,1001.7
2017-08-13T15:58:52.224Z,1001.7
2017-08-13T15:59:54.073Z,1001.6
2017-08-13T16:00:55.651Z,1001.7
2017-08-13T16:01:57.262Z,1001.6
2017-08-13T16:02:58.916Z,1001.7
2017-08-13T16:04:00.487Z,1001.6
2017-08-13T16:05:02.048Z,1001.6
2017-08-13T16:06:03.607Z,1001.6
2017-08-13T16:07:05.262Z,1001.6
2017-08-13T16:08:06.902Z,1001.5
2017-08-13T16:09:08.553Z,1001.5
2017-08-13T16:10:10.200Z,1001.5
2017-08-13T16:11:12.123Z,1001.5
2017-08-13T16:12:13.703Z,1001.5
2017-08-13T16:13:15.294Z,1001.5
2017-08-13T16:14:16.865Z,1001.5
2017-08-13T16:15:18.546Z,1001.4
2017-08-13T16:16:20.167Z,1001.5
2017-08-13T16:17:21.761Z,1001.5
2017-08-13T16:18:23.580Z,1001.5
2017-08-13T16:19:25.100Z,1001.4
2017-08-13T16:20:26.680Z,1001.4
2017-08-13T16:21:28.359Z,1001.5
2017-08-13T16:22:29.991Z,1001.4
2017-08-13T16:23:31.626Z,1001.5
2017-08-13T16:24:33.649Z,1001.5
2017-08-13T16:25:35.211Z,1001.4
2017-08-13T16:26:36.786Z,1001.4
2017-08-13T16:27:38.467Z,1001.4
2017-08-13T16:28:40.108Z,1001.4
2017-08-13T16:29:41.661Z,1001.5
2017-08-13T16:30:43.233Z,1001.4
2017-08-13T16:31:44.864Z,1001.4
2017-08-13T16:32:46.464Z,1001.4
2017-08-13T16:33:48.234Z,1001.4
2017-08-13T16:34:53.651Z,1001.4
2017-08-13T16:35:59.839Z,1001.4
2017-08-13T16:37:04.702Z,1001.4
2017-08-13T16:38:07.576Z,1001.4
2017-08-13T16:39:09.189Z,1001.4
2017-08-13T16:40:12.448Z,1001.4
2017-08-13T16:41:15.139Z,1001.4
2017-08-13T16:42:24.378Z,1001.3
2017-08-13T16:43:26.415Z,1001.4
2017-08-13T16:44:28.346Z,1001.4
2017-08-13T16:45:30.033Z,1001.4
2017-08-13T16:46:31.709Z,1001.4
2017-08-13T16:47:33.858Z,1001.4
2017-08-13T16:48:35.511Z,1001.4
2017-08-13T16:49:37.152Z,1001.4
2017-08-13T16:50:41.811Z,1001.4
2017-08-13T16:51:44.395Z,1001.4
2017-08-13T16:52:46.021Z,1001.4
2017-08-13T16:53:47.558Z,1001.4
2017-08-13T16:54:50.767Z,1001.4
2017-08-13T16:55:52.354Z,1001.4
2017-08-13T16:56:53.918Z,1001.4
2017-08-13T16:57:55.891Z,1001.4
2017-08-13T16:58:57.592Z,1001.4
2017-08-13T16:59:59.400Z,1001.4
2017-08-13T17:01:01.270Z,1001.4
2017-08-13T17:02:07.272Z,1001.4
2017-08-13T17:03:08.893Z,1001.5
2017-08-13T17:04:10.706Z,1001.4
2017-08-13T17:05:15.193Z,1001.5
2017-08-13T17:06:16.674Z,1001.4
2017-08-13T17:07:18.312Z,1001.5
2017-08-13T17:08:20.449Z,1001.4
2017-08-13T17:09:22.286Z,1001.5
2017-08-13T17:10:23.984Z,1001.5
2017-08-13T17:11:25.589Z,1001.5
2017-08-13T17:12:27.098Z,1001.5
2017-08-13T17:13:28.723Z,1001.5
2017-08-13T17:14:30.203Z,1001.4
2017-08-13T17:15:31.728Z,1001.5
2017-08-13T17:16:33.320Z,1001.5
2017-08-13T17:17:34.953Z,1001.4
2017-08-13T17:18:36.674Z,1001.5
2017-08-13T17:19:38.326Z,1001.5
2017-08-13T17:20:40.014Z,1001.5
2017-08-13T17:21:41.557Z,1001.5
2017-08-13T17:22:43.178Z,1001.5
2017-08-13T17:23:44.772Z,1001.5
2017-08-13T17:24:46.332Z,1001.4
2017-08-13T17:25:48.066Z,1001.4
2017-08-13T17:26:49.933Z,1001.5
2017-08-13T17:27:51.504Z,1001.4
2017-08-13T17:28:53.502Z,1001.4
2017-08-13T17:29:55.149Z,1001.5
2017-08-13T17:30:56.703Z,1001.5
2017-08-13T17:31:58.310Z,1001.5
2017-08-13T17:32:59.842Z,1001.5
2017-08-13T17:34:01.336Z,1001.5
2017-08-13T17:35:03.049Z,1001.5
2017-08-13T17:36:04.640Z,1001.5
2017-08-13T17:37:06.193Z,1001.5
2017-08-13T17:38:07.776Z,1001.6
2017-08-13T17:39:09.359Z,1001.6
2017-08-13T17:40:10.953Z,1001.5
2017-08-13T17:41:12.534Z,1001.5
2017-08-13T17:42:14.060Z,1001.6
2017-08-13T17:43:15.580Z,1001.5
2017-08-13T17:44:17.076Z,1001.6
2017-08-13T17:45:18.595Z,1001.5
2017-08-13T17:46:20.144Z,1001.5
2017-08-13T17:47:21.686Z,1001.5
2017-08-13T17:48:23.303Z,1001.5
2017-08-13T17:49:24.878Z,1001.5
2017-08-13T17:50:26.498Z,1001.6
2017-08-13T17:51:28.039Z,1001.5
2017-08-13T17:52:29.577Z,1001.5
2017-08-13T17:53:31.059Z,1001.5
2017-08-13T17:54:32.664Z,1001.5
2017-08-13T17:55:34.163Z,1001.5
2017-08-13T17:56:35.782Z,1001.5
2017-08-13T17:57:37.409Z,1001.5
2017-08-13T17:58:38.969Z,1001.5
2017-08-13T17:59:40.538Z,1001.5
2017-08-13T18:00:42.091Z,1001.5
2017-08-13T18:01:43.657Z,1001.6
2017-08-13T18:02:45.209Z,1001.6
2017-08-13T18:03:46.718Z,1001.6
2017-08-13T18:04:48.300Z,1001.6
2017-08-13T18:05:49.810Z,1001.6
2017-08-13T18:06:51.368Z,1001.6
2017-08-13T18:07:53.995Z,1001.6
2017-08-13T18:08:55.607Z,1001.6
2017-08-13T18:09:57.249Z,1001.6
2017-08-13T18:10:58.855Z,1001.6
2017-08-13T18:12:00.469Z,1001.6
2017-08-13T18:13:02.083Z,1001.6
2017-08-13T18:14:03.960Z,1001.6
2017-08-13T18:15:05.555Z,1001.7
2017-08-13T18:16:07.109Z,1001.7
2017-08-13T18:17:08.773Z,1001.6
2017-08-13T18:18:10.393Z,1001.7
2017-08-13T18:19:11.940Z,1001.7
2017-08-13T18:20:13.449Z,1001.7
2017-08-13T18:21:15.045Z,1001.7
2017-08-13T18:22:16.734Z,1001.7
2017-08-13T18:23:18.425Z,1001.7
2017-08-13T18:24:20.082Z,1001.7
2017-08-13T18:25:21.736Z,1001.7
2017-08-13T18:26:23.273Z,1001.7
2017-08-13T18:27:24.846Z,1001.7
2017-08-13T18:28:26.375Z,1001.8
2017-08-13T18:29:27.917Z,1001.7
2017-08-13T18:30:29.496Z,1001.7
2017-08-13T18:31:31.025Z,1001.8
2017-08-13T18:32:32.570Z,1001.8
2017-08-13T18:33:34.117Z,1001.8
2017-08-13T18:34:35.725Z,1001.8
2017-08-13T18:35:37.240Z,1001.8
2017-08-13T18:36:38.893Z,1001.8
2017-08-13T18:37:40.450Z,1001.8
2017-08-13T18:38:42.028Z,1001.8
2017-08-13T18:39:43.541Z,1001.9
2017-08-13T18:40:45.173Z,1001.9
2017-08-13T18:41:46.775Z,1001.9
2017-08-13T18:42:48.346Z,1001.9
2017-08-13T18:43:49.908Z,1001.9
2017-08-13T18:44:51.396Z,1001.9
2017-08-13T18:45:52.987Z,1001.9
2017-08-13T18:46:54.619Z,1002.0
2017-08-13T18:47:56.146Z,1002.0
2017-08-13T18:48:57.854Z,1002.0
2017-08-13T18:49:59.413Z,1002.1
2017-08-13T18:51:00.988Z,1002.1
2017-08-13T18:52:02.530Z,1002.1
2017-08-13T18:53:04.147Z,1002.1
2017-08-13T18:54:06.782Z,1002.1
2017-08-13T18:55:08.475Z,1002.1
2017-08-13T18:56:09.969Z,1002.1
2017-08-13T18:57:11.461Z,1002.1
2017-08-13T18:58:13.005Z,1002.1
2017-08-13T18:59:14.667Z,1002.1
2017-08-13T19:00:16.204Z,1002.1
2017-08-13T19:01:18.022Z,1002.2
2017-08-13T19:02:20.178Z,1002.2
2017-08-13T19:03:21.594Z,1002.2
2017-08-13T19:04:23.166Z,1002.2
2017-08-13T19:05:24.715Z,1002.3
2017-08-13T19:06:26.288Z,1002.2
2017-08-13T19:07:27.836Z,1002.2
2017-08-13T19:08:29.403Z,1002.3
2017-08-13T19:09:30.941Z,1002.3
2017-08-13T19:10:33.572Z,1002.3
2017-08-13T19:11:35.106Z,1002.3
2017-08-13T19:12:36.741Z,1002.3
2017-08-13T19:13:38.355Z,1002.3
2017-08-13T19:14:39.840Z,1002.3
2017-08-13T19:15:41.484Z,1002.4
2017-08-13T19:16:43.027Z,1002.4
2017-08-13T19:17:44.529Z,1002.4
2017-08-13T19:18:46.063Z,1002.4
2017-08-13T19:19:47.570Z,1002.4
2017-08-13T19:20:49.159Z,1002.4
2017-08-13T19:21:50.691Z,1002.4
2017-08-13T19:22:52.265Z,1002.4
2017-08-13T19:23:53.920Z,1002.4
2017-08-13T19:24:55.442Z,1002.4
2017-08-13T19:25:57.009Z,1002.5
2017-08-13T19:26:58.562Z,1002.5
2017-08-13T19:28:00.076Z,1002.5
2017-08-13T19:29:01.570Z,1002.5
2017-08-13T19:30:03.099Z,1002.5
2017-08-13T19:31:04.681Z,1002.5
2017-08-13T19:32:06.219Z,1002.5
2017-08-13T19:33:07.619Z,1002.5
2017-08-13T19:34:09.133Z,1002.5
2017-08-13T19:35:10.675Z,1002.5
2017-08-13T19:36:12.179Z,1002.5
2017-08-13T19:37:13.707Z,1002.5
2017-08-13T19:38:15.231Z,1002.5
2017-08-13T19:39:16.819Z,1002.5
2017-08-13T19:40:18.376Z,1002.6
2017-08-13T19:41:20.076Z,1002.5
2017-08-13T19:42:21.674Z,1002.5
2017-08-13T19:43:23.255Z,1002.6
2017-08-13T19:44:24.774Z,1002.5
2017-08-13T19:45:26.332Z,1002.6
2017-08-13T19:46:27.870Z,1002.5
2017-08-13T19:47:29.406Z,1002.5
2017-08-13T19:48:30.994Z,1002.6
2017-08-13T19:49:32.481Z,1002.6
2017-08-13T19:50:34.003Z,1002.6
2017-08-13T19:51:35.476Z,1002.6
2017-08-13T19:52:36.933Z,1002.6
2017-08-13T19:53:38.391Z,1002.6
2017-08-13T19:54:39.923Z,1002.6
2017-08-13T19:55:41.667Z,1002.6
2017-08-13T19:56:43.223Z,1002.6
2017-08-13T19:57:44.786Z,1002.6
2017-08-13T19:58:46.271Z,1002.6
2017-08-13T19:59:47.849Z,1002.7
2017-08-13T20:00:49.369Z,1002.6
2017-08-13T20:01:50.849Z,1002.6
2017-08-13T20:02:52.298Z,1002.5
2017-08-13T20:03:53.715Z,1002.6
2017-08-13T20:04:55.236Z,1002.6
2017-08-13T20:05:56.671Z,1002.6
2017-08-13T20:06:58.114Z,1002.6
2017-08-13T20:07:59.532Z,1002.6
2017-08-13T20:09:00.958Z,1002.6
2017-08-13T20:10:02.362Z,1002.6
2017-08-13T20:11:03.848Z,1002.6
2017-08-13T20:12:05.399Z,1002.6
2017-08-13T20:13:06.828Z,1002.6
2017-08-13T20:14:08.251Z,1002.6
2017-08-13T20:15:09.673Z,1002.6
2017-08-13T20:16:11.088Z,1002.6
2017-08-13T20:17:12.565Z,1002.6
2017-08-13T20:18:13.990Z,1002.6
2017-08-13T20:19:15.413Z,1002.6
2017-08-13T20:20:16.847Z,1002.6
2017-08-13T20:21:18.332Z,1002.6
2017-08-13T20:22:19.747Z,1002.6
2017-08-13T20:23:21.169Z,1002.6
2017-08-13T20:24:22.620Z,1002.7
2017-08-13T20:25:24.026Z,1002.7
2017-08-13T20:26:25.441Z,1002.7
2017-08-13T20:27:26.917Z,1002.7
2017-08-13T20:28:28.344Z,1002.7
2017-08-13T20:29:29.759Z,1002.7
2017-08-13T20:30:31.185Z,1002.7
2017-08-13T20:31:32.575Z,1002.8
2017-08-13T20:32:33.993Z,1002.7
2017-08-13T20:33:35.402Z,1002.7
2017-08-13T20:34:36.810Z,1002.7
2017-08-13T20:35:38.222Z,1002.7
2017-08-13T20:36:39.637Z,1002.7
2017-08-13T20:37:41.055Z,1002.8
2017-08-13T20:38:42.456Z,1002.8
2017-08-13T20:39:43.874Z,1002.7
2017-08-13T20:40:45.283Z,1002.8
2017-08-13T20:41:46.690Z,1002.8
2017-08-13T20:42:48.098Z,1002.8
2017-08-13T20:43:49.515Z,1002.7
2017-08-13T20:44:50.921Z,1002.8
2017-08-13T20:45:52.332Z,1002.7
2017-08-13T20:46:53.735Z,1002.8
2017-08-13T20:47:55.147Z,1002.8